createdAt,value
2023-02-24T00:02:01.654Z,38.53
2023-02-24T00:04:33.056Z,43.10
2023-02-24T00:07:01.056Z,45.88
2023-02-24T00:09:30.516Z,46.53
2023-02-24T00:12:04.547Z,48.72
2023-02-24T00:14:35.429Z,47.35
2023-02-24T00:17:03.415Z,48.17
2023-02-24T00:19:35.644Z,47.40
2023-02-24T00:22:05.622Z,49.03
2023-02-24T00:24:34.038Z,50.22
2023-02-24T00:27:07.911Z,49.33
2023-02-24T00:29:40.372Z,46.88
2023-02-24T00:32:13.158Z,50.30
2023-02-24T00:34:42.230Z,48.72
2023-02-24T00:37:09.882Z,51.40
2023-02-24T00:39:41.826Z,48.63
2023-02-24T00:42:12.172Z,46.50
2023-02-24T00:44:44.008Z,43.90
2023-02-24T00:47:12.358Z,45.30
2023-02-24T00:49:43.030Z,43.30
2023-02-24T00:52:28.027Z,39.70
2023-02-24T00:54:55.927Z,43.88
2023-02-24T00:57:23.535Z,45.10
2023-02-24T00:59:52.332Z,42.67
2023-02-24T01:02:20.760Z,42.83
2023-02-24T01:04:50.112Z,42.72
2023-02-24T01:07:17.727Z,42.33
2023-02-24T01:09:45.449Z,41.28
2023-02-24T01:12:32.272Z,40.63
2023-02-24T01:15:00.124Z,36.92
2023-02-24T01:17:27.757Z,38.92
2023-02-24T01:20:00.886Z,37.80
2023-02-24T01:22:28.580Z,37.30
2023-02-24T01:24:56.233Z,41.08
2023-02-24T01:27:24.013Z,42.83
2023-02-24T01:29:51.634Z,41.90
2023-02-24T01:32:22.026Z,41.08
2023-02-24T01:34:53.303Z,39.97
2023-02-24T01:37:21.698Z,38.00
2023-02-24T01:39:50.456Z,36.75
2023-02-24T01:42:20.646Z,34.92
2023-02-24T01:44:48.245Z,34.72
2023-02-24T01:47:22.790Z,33.65
2023-02-24T01:49:54.457Z,32.53
2023-02-24T01:52:32.518Z,31.83
2023-02-24T01:55:23.326Z,32.42
2023-02-24T01:57:52.941Z,30.48
2023-02-24T02:00:39.152Z,31.08
2023-02-24T02:03:16.309Z,29.80
2023-02-24T02:05:48.725Z,28.65
2023-02-24T02:08:18.756Z,28.63
2023-02-24T02:10:47.251Z,29.73
2023-02-24T02:13:21.257Z,29.92
2023-02-24T02:16:03.109Z,26.20
2023-02-24T02:18:41.265Z,29.13
2023-02-24T02:21:36.376Z,28.58
2023-02-24T02:24:25.119Z,26.60
2023-02-24T02:26:57.914Z,25.13
2023-02-24T02:29:51.913Z,23.45
2023-02-24T02:33:01.891Z,23.17
2023-02-24T02:36:07.406Z,22.73
2023-02-24T02:38:58.615Z,21.17
2023-02-24T02:41:40.404Z,19.38
2023-02-24T02:44:22.659Z,21.13
2023-02-24T02:47:23.937Z,18.85
2023-02-24T02:50:08.249Z,20.05
2023-02-24T02:52:46.257Z,20.27
2023-02-24T02:55:21.805Z,21.75
2023-02-24T02:57:53.611Z,19.05
2023-02-24T03:00:29.548Z,18.90
2023-02-24T03:03:04.094Z,21.92
2023-02-24T03:05:46.634Z,21.23
2023-02-24T03:08:19.905Z,22.52
2023-02-24T03:10:51.511Z,22.30
2023-02-24T03:13:24.173Z,22.15
2023-02-24T03:15:53.915Z,22.45
2023-02-24T03:18:34.883Z,22.67
2023-02-24T03:21:12.047Z,23.50
2023-02-24T03:23:51.075Z,23.58
2023-02-24T03:26:32.305Z,23.55
2023-02-24T03:29:24.452Z,24.73
2023-02-24T03:32:20.931Z,22.80
2023-02-24T03:34:57.619Z,22.33
2023-02-24T03:37:33.666Z,23.80
2023-02-24T03:40:11.745Z,23.38
2023-02-24T03:42:54.545Z,22.55
2023-02-24T03:45:24.160Z,21.42
2023-02-24T03:47:54.338Z,21.02
2023-02-24T03:50:23.058Z,19.65
2023-02-24T03:53:32.116Z,19.33
2023-02-24T03:56:40.573Z,18.20
2023-02-24T03:59:28.684Z,16.30
2023-02-24T04:02:20.935Z,16.10
2023-02-24T04:05:15.110Z,15.48
2023-02-24T04:08:04.294Z,13.95
2023-02-24T04:10:39.373Z,12.82
2023-02-24T04:13:35.507Z,14.57
2023-02-24T04:16:43.298Z,13.52
2023-02-24T04:19:17.071Z,12.07
2023-02-24T04:21:49.116Z,11.02
2023-02-24T04:24:27.764Z,11.48
2023-02-24T04:26:59.543Z,11.80
2023-02-24T04:29:35.844Z,11.43
2023-02-24T04:32:08.037Z,11.55
2023-02-24T04:34:36.183Z,12.80
2023-02-24T04:37:03.883Z,13.00
2023-02-24T04:39:32.493Z,12.20
2023-02-24T04:42:01.893Z,11.88
2023-02-24T04:44:29.741Z,11.50
2023-02-24T04:46:57.363Z,11.30
2023-02-24T04:49:25.104Z,10.50
2023-02-24T04:51:53.124Z,8.95
2023-02-24T04:54:21.389Z,10.13
2023-02-24T04:56:51.058Z,10.25
2023-02-24T04:59:21.021Z,10.45
2023-02-24T05:01:51.835Z,10.15
2023-02-24T05:04:19.930Z,9.50
2023-02-24T05:06:47.548Z,11.07
2023-02-24T05:09:19.976Z,10.50
2023-02-24T05:11:51.121Z,10.50
2023-02-24T05:14:24.847Z,10.38
2023-02-24T05:16:53.059Z,11.43
2023-02-24T05:19:39.498Z,10.48
2023-02-24T05:22:14.592Z,9.82
2023-02-24T05:24:42.317Z,10.88
2023-02-24T05:27:10.139Z,9.25
2023-02-24T05:29:37.997Z,10.50
2023-02-24T05:32:05.865Z,10.27
2023-02-24T05:34:34.166Z,9.70
2023-02-24T05:37:10.371Z,8.82
2023-02-24T05:39:38.475Z,9.32
2023-02-24T05:42:06.851Z,9.77
2023-02-24T05:44:46.848Z,9.82
2023-02-24T05:47:17.323Z,9.05
2023-02-24T05:49:45.051Z,10.23
2023-02-24T05:52:14.405Z,9.43
2023-02-24T05:54:44.199Z,9.80
2023-02-24T05:57:20.596Z,11.20
2023-02-24T05:59:52.045Z,11.07
2023-02-24T06:02:28.031Z,11.05
2023-02-24T06:04:56.119Z,11.55
2023-02-24T06:07:26.276Z,11.45
2023-02-24T06:09:57.603Z,11.00
2023-02-24T06:12:28.398Z,12.00
2023-02-24T06:14:58.413Z,11.77
2023-02-24T06:17:27.253Z,10.85
2023-02-24T06:19:55.311Z,9.73
2023-02-24T06:22:25.252Z,9.63
2023-02-24T06:24:54.822Z,8.18
2023-02-24T06:27:25.399Z,7.97
2023-02-24T06:29:55.096Z,7.75
2023-02-24T06:32:25.356Z,6.80
2023-02-24T06:34:54.314Z,7.30
2023-02-24T06:37:23.495Z,7.53
2023-02-24T06:39:51.320Z,7.95
2023-02-24T06:42:19.128Z,7.95
2023-02-24T06:44:46.972Z,8.30
2023-02-24T06:47:16.499Z,7.93
2023-02-24T06:49:44.312Z,7.18
2023-02-24T06:52:18.761Z,6.38
2023-02-24T06:54:52.586Z,6.30
2023-02-24T06:57:20.879Z,6.20
2023-02-24T06:59:49.185Z,5.85
2023-02-24T07:02:17.895Z,5.82
2023-02-24T07:04:45.581Z,5.60
2023-02-24T07:07:17.735Z,5.25
2023-02-24T07:09:45.711Z,6.35
2023-02-24T07:12:13.661Z,5.65
2023-02-24T07:14:41.503Z,6.45
2023-02-24T07:17:09.194Z,8.05
2023-02-24T07:19:37.077Z,6.70
2023-02-24T07:22:05.215Z,6.35
2023-02-24T07:24:39.491Z,4.70
2023-02-24T07:27:11.693Z,4.47
2023-02-24T07:29:39.655Z,4.55
2023-02-24T07:32:09.456Z,4.07
2023-02-24T07:34:40.655Z,3.88
2023-02-24T07:37:10.082Z,4.75
2023-02-24T07:39:39.547Z,4.10
2023-02-24T07:42:09.617Z,4.38
2023-02-24T07:44:49.346Z,4.82
2023-02-24T07:47:17.336Z,4.40
2023-02-24T07:49:45.732Z,4.25
2023-02-24T07:52:13.805Z,4.10
2023-02-24T07:54:41.727Z,4.82
2023-02-24T07:57:14.174Z,4.28
2023-02-24T07:59:47.763Z,4.00
2023-02-24T08:04:50.600Z,3.45
2023-02-24T08:07:25.219Z,3.30
2023-02-24T08:10:14.707Z,3.75
2023-02-24T08:12:43.055Z,4.68
2023-02-24T08:15:17.613Z,3.45
2023-02-24T08:17:47.731Z,3.50
2023-02-24T08:20:16.035Z,3.80
2023-02-24T08:22:47.326Z,5.18
2023-02-24T08:25:19.137Z,7.38
2023-02-24T08:28:07.453Z,7.95
2023-02-24T08:30:39.840Z,5.63
2023-02-24T08:33:11.145Z,5.20
2023-02-24T08:35:45.076Z,3.85
2023-02-24T08:38:19.680Z,4.78
2023-02-24T08:40:50.758Z,4.85
2023-02-24T08:43:38.533Z,3.88
2023-02-24T08:46:21.648Z,6.28
2023-02-24T08:48:55.887Z,5.47
2023-02-24T08:51:30.348Z,3.45
2023-02-24T08:54:01.060Z,3.25
2023-02-24T08:56:35.190Z,3.80
2023-02-24T08:59:06.000Z,2.67
2023-02-24T09:01:38.784Z,3.80
2023-02-24T09:04:12.397Z,3.90
2023-02-24T09:06:47.185Z,3.15
2023-02-24T09:09:23.663Z,4.20
2023-02-24T09:11:56.699Z,4.22
2023-02-24T09:14:36.735Z,2.75
2023-02-24T09:17:11.585Z,3.22
2023-02-24T09:19:48.096Z,3.35
2023-02-24T09:22:40.547Z,3.30
2023-02-24T09:25:40.877Z,4.20
2023-02-24T09:28:17.647Z,3.55
2023-02-24T09:30:53.752Z,3.22
2023-02-24T09:33:23.402Z,3.60
2023-02-24T09:36:17.671Z,3.83
2023-02-24T09:41:56.775Z,3.33
2023-02-24T09:44:29.438Z,3.65
2023-02-24T09:47:13.663Z,3.60
2023-02-24T09:49:49.889Z,3.30
2023-02-24T09:52:19.049Z,3.55
2023-02-24T09:55:08.782Z,3.72
2023-02-24T09:58:11.210Z,3.25
2023-02-24T10:00:45.427Z,3.00
2023-02-24T10:03:42.993Z,3.00
2023-02-24T10:06:23.908Z,2.90
2023-02-24T10:09:00.169Z,2.42
2023-02-24T10:11:33.268Z,2.30
2023-02-24T10:14:09.805Z,3.33
2023-02-24T10:16:43.709Z,3.40
2023-02-24T10:19:29.492Z,2.97
2023-02-24T10:22:05.280Z,2.88
2023-02-24T10:24:47.727Z,2.67
2023-02-24T10:27:24.246Z,2.75
2023-02-24T10:30:05.395Z,2.97
2023-02-24T10:32:51.247Z,2.55
2023-02-24T10:35:26.249Z,3.40
2023-02-24T10:37:59.177Z,2.45
2023-02-24T10:40:44.103Z,2.60
2023-02-24T10:43:18.035Z,2.67
2023-02-24T10:45:47.832Z,2.50
2023-02-24T10:48:41.483Z,2.72
2023-02-24T10:51:22.640Z,2.30
2023-02-24T10:54:14.564Z,2.30
2023-02-24T10:56:45.085Z,2.80
2023-02-24T10:59:25.424Z,2.47
2023-02-24T11:02:06.963Z,2.10
2023-02-24T11:04:54.206Z,2.30
2023-02-24T11:07:25.420Z,2.42
2023-02-24T11:10:11.626Z,2.10
2023-02-24T11:13:10.547Z,2.17
2023-02-24T11:16:05.215Z,1.90
2023-02-24T11:18:33.892Z,1.92
2023-02-24T11:21:12.825Z,1.95
2023-02-24T11:24:03.120Z,1.92
2023-02-24T11:26:41.119Z,2.17
2023-02-24T11:29:26.540Z,2.10
2023-02-24T11:32:15.528Z,2.63
2023-02-24T11:35:12.665Z,1.90
2023-02-24T11:38:02.012Z,2.63
2023-02-24T11:40:37.428Z,2.90
2023-02-24T11:43:25.239Z,3.30
2023-02-24T11:46:00.860Z,3.28
2023-02-24T11:48:34.754Z,3.58
2023-02-24T11:53:55.686Z,3.40
2023-02-24T11:56:28.244Z,3.67
2023-02-24T11:59:06.381Z,4.10
2023-02-24T12:01:46.834Z,3.95
2023-02-24T12:04:21.088Z,4.53
2023-02-24T12:07:00.588Z,4.75
2023-02-24T12:09:34.319Z,4.88
2023-02-24T12:12:08.546Z,4.53
2023-02-24T12:14:50.492Z,4.95
2023-02-24T12:17:35.069Z,5.40
2023-02-24T12:20:06.084Z,5.00
2023-02-24T12:22:46.248Z,4.90
2023-02-24T12:25:15.233Z,5.00
2023-02-24T12:28:13.151Z,4.90
2023-02-24T12:31:03.487Z,4.72
2023-02-24T12:33:31.341Z,5.75
2023-02-24T12:36:04.630Z,4.80
2023-02-24T12:38:41.054Z,4.80
2023-02-24T12:41:23.814Z,4.95
2023-02-24T12:44:03.019Z,4.50
2023-02-24T12:46:38.601Z,4.97
2023-02-24T12:49:36.413Z,5.30
2023-02-24T12:52:40.369Z,4.97
2023-02-24T12:55:18.275Z,4.95
2023-02-24T12:57:56.077Z,4.97
2023-02-24T13:00:35.954Z,4.00
2023-02-24T13:03:15.814Z,4.45
2023-02-24T13:05:51.617Z,4.30
2023-02-24T13:08:43.918Z,4.07
2023-02-24T13:11:30.448Z,4.35
2023-02-24T13:14:16.964Z,4.45
2023-02-24T13:16:44.836Z,4.30
2023-02-24T13:19:30.075Z,4.70
2023-02-24T13:22:09.057Z,4.80
2023-02-24T13:24:36.941Z,4.20
2023-02-24T13:27:15.103Z,4.38
2023-02-24T13:29:57.174Z,4.85
2023-02-24T13:32:34.415Z,4.80
2023-02-24T13:35:05.919Z,6.07
2023-02-24T13:37:37.959Z,5.80
2023-02-24T13:40:24.032Z,5.95
2023-02-24T13:43:00.291Z,5.78
2023-02-24T13:45:29.396Z,6.05
2023-02-24T13:48:19.392Z,6.03
2023-02-24T13:51:04.961Z,6.30
2023-02-24T13:53:32.678Z,6.63
2023-02-24T13:56:21.753Z,7.30
2023-02-24T13:59:24.354Z,6.57
2023-02-24T14:02:03.069Z,6.63
2023-02-24T14:04:33.373Z,6.93
2023-02-24T14:07:11.866Z,6.88
2023-02-24T14:10:23.449Z,6.20
2023-02-24T14:13:17.409Z,7.45
2023-02-24T14:15:47.906Z,7.43
2023-02-24T14:18:21.191Z,7.80
2023-02-24T14:23:22.588Z,6.32
2023-02-24T14:25:57.530Z,6.38
2023-02-24T14:28:40.023Z,6.15
2023-02-24T14:31:16.945Z,6.13
2023-02-24T14:33:45.997Z,7.50
2023-02-24T14:36:37.315Z,6.50
2023-02-24T14:39:14.928Z,6.90
2023-02-24T14:41:43.420Z,6.70
2023-02-24T14:44:28.606Z,6.40
2023-02-24T14:46:58.615Z,6.50
2023-02-24T14:49:32.665Z,6.10
2023-02-24T14:52:12.104Z,7.25
2023-02-24T14:54:47.925Z,7.40
2023-02-24T14:57:20.321Z,7.00
2023-02-24T14:59:53.867Z,6.75
2023-02-24T15:02:29.089Z,7.38
2023-02-24T15:04:57.787Z,7.05
2023-02-24T15:07:35.180Z,7.35
2023-02-24T15:10:05.117Z,7.38
2023-02-24T15:12:37.070Z,7.75
2023-02-24T15:15:17.942Z,7.53
2023-02-24T15:17:48.356Z,7.78
2023-02-24T15:20:26.733Z,8.63
2023-02-24T15:22:54.589Z,7.07
2023-02-24T15:25:37.210Z,7.97
2023-02-24T15:28:22.975Z,7.35
2023-02-24T15:31:05.178Z,6.63
2023-02-24T15:33:40.240Z,7.57
2023-02-24T15:36:12.588Z,7.13
2023-02-24T15:38:43.727Z,6.53
2023-02-24T15:41:13.196Z,7.07
2023-02-24T15:43:43.614Z,6.75
2023-02-24T15:46:37.466Z,6.68
2023-02-24T15:49:05.716Z,7.75
2023-02-24T15:51:42.305Z,6.68
2023-02-24T15:54:14.434Z,7.05
2023-02-24T15:56:43.573Z,7.35
2023-02-24T15:59:14.897Z,7.25
2023-02-24T16:01:42.634Z,6.38
2023-02-24T16:04:10.511Z,6.75
2023-02-24T16:06:42.464Z,6.72
2023-02-24T16:09:15.846Z,6.22
2023-02-24T16:11:47.404Z,7.10
2023-02-24T16:14:18.493Z,6.97
2023-02-24T16:16:46.309Z,6.53
2023-02-24T16:19:16.086Z,6.88
2023-02-24T16:21:44.593Z,6.10
2023-02-24T16:24:12.693Z,7.30
2023-02-24T16:26:41.308Z,6.88
2023-02-24T16:29:14.597Z,6.97
2023-02-24T16:31:42.848Z,6.43
2023-02-24T16:34:15.465Z,5.43
2023-02-24T16:36:44.044Z,6.50
2023-02-24T16:39:14.248Z,6.78
2023-02-24T16:41:42.218Z,6.90
2023-02-24T16:44:10.935Z,6.35
2023-02-24T16:46:41.362Z,7.10
2023-02-24T16:49:13.068Z,7.07
2023-02-24T16:51:40.927Z,6.82
2023-02-24T16:54:08.785Z,6.90
2023-02-24T16:56:36.857Z,6.45
2023-02-24T16:59:04.532Z,7.93
2023-02-24T17:01:32.487Z,7.65
2023-02-24T17:04:00.411Z,6.70
2023-02-24T17:06:29.323Z,7.03
2023-02-24T17:08:57.082Z,7.75
2023-02-24T17:11:27.763Z,7.65
2023-02-24T17:13:55.651Z,7.03
2023-02-24T17:16:24.023Z,7.45
2023-02-24T17:18:51.994Z,6.50
2023-02-24T17:21:19.711Z,7.00
2023-02-24T17:23:47.488Z,6.65
2023-02-24T17:26:16.405Z,6.60
2023-02-24T17:28:44.286Z,7.15
2023-02-24T17:31:12.611Z,7.32
2023-02-24T17:33:41.249Z,7.60
2023-02-24T17:36:08.984Z,7.55
2023-02-24T17:38:36.744Z,8.30
2023-02-24T17:41:04.582Z,7.80
2023-02-24T17:43:32.232Z,7.90
2023-02-24T17:46:02.886Z,7.32
2023-02-24T17:48:31.762Z,8.15
2023-02-24T17:50:59.428Z,8.60
2023-02-24T17:53:28.624Z,7.90
2023-02-24T17:56:06.236Z,9.00
2023-02-24T17:58:34.908Z,8.75
2023-02-24T18:01:05.913Z,8.32
2023-02-24T18:03:35.887Z,9.85
2023-02-24T18:06:09.894Z,8.70
2023-02-24T18:08:38.525Z,8.93
2023-02-24T18:11:07.953Z,8.70
2023-02-24T18:13:36.220Z,7.55
2023-02-24T18:16:12.781Z,7.95
2023-02-24T18:18:41.356Z,7.95
2023-02-24T18:21:09.101Z,7.22
2023-02-24T18:23:40.540Z,7.07
2023-02-24T18:26:10.539Z,7.53
2023-02-24T18:28:39.028Z,6.65
2023-02-24T18:31:16.143Z,6.95
2023-02-24T18:33:44.265Z,7.10
2023-02-24T18:36:12.293Z,6.78
2023-02-24T18:38:40.127Z,6.40
2023-02-24T18:41:19.820Z,6.43
2023-02-24T18:43:49.062Z,6.65
2023-02-24T18:46:17.818Z,6.25
2023-02-24T18:48:46.452Z,6.40
2023-02-24T18:51:20.484Z,5.80
2023-02-24T18:53:50.167Z,5.72
2023-02-24T18:56:22.671Z,5.85
2023-02-24T18:58:52.686Z,5.30
2023-02-24T19:01:25.132Z,5.20
2023-02-24T19:03:55.540Z,5.22
2023-02-24T19:06:25.051Z,5.22
2023-02-24T19:09:12.260Z,4.93
2023-02-24T19:11:41.227Z,4.45
2023-02-24T19:14:11.973Z,3.90
2023-02-24T19:16:40.401Z,3.58
2023-02-24T19:19:08.254Z,3.53
2023-02-24T19:21:36.031Z,3.00
2023-02-24T19:24:08.412Z,2.65
2023-02-24T19:26:36.340Z,3.10
2023-02-24T19:29:04.322Z,3.25
2023-02-24T19:31:34.289Z,3.08
2023-02-24T19:34:05.111Z,3.00
2023-02-24T19:36:35.143Z,3.67
2023-02-24T19:39:03.023Z,2.88
2023-02-24T19:41:31.141Z,3.30
2023-02-24T19:43:59.183Z,2.90
2023-02-24T19:46:27.201Z,3.35
2023-02-24T19:48:56.743Z,2.90
2023-02-24T19:51:25.006Z,2.80
2023-02-24T19:53:54.599Z,2.47
2023-02-24T19:56:28.169Z,2.45
2023-02-24T19:58:57.518Z,2.45
2023-02-24T20:01:27.634Z,2.50
2023-02-24T20:03:58.227Z,2.45
2023-02-24T20:06:31.457Z,2.38
2023-02-24T20:09:00.224Z,2.65
2023-02-24T20:11:30.001Z,2.75
2023-02-24T20:13:57.723Z,3.10
2023-02-24T20:16:27.074Z,2.80
2023-02-24T20:18:55.758Z,3.13
2023-02-24T20:21:23.410Z,3.20
2023-02-24T20:23:51.562Z,3.53
2023-02-24T20:26:20.606Z,3.67
2023-02-24T20:28:48.559Z,3.50
2023-02-24T20:31:21.109Z,4.47
2023-02-24T20:33:49.685Z,4.28
2023-02-24T20:36:22.003Z,4.80
2023-02-24T20:38:50.203Z,5.30
2023-02-24T20:41:19.041Z,5.30
2023-02-24T20:43:47.262Z,6.50
2023-02-24T20:46:16.505Z,6.80
2023-02-24T20:48:44.820Z,6.70
2023-02-24T20:51:12.877Z,6.75
2023-02-24T20:53:55.914Z,7.28
2023-02-24T20:56:25.662Z,7.35
2023-02-24T20:59:00.092Z,7.35
2023-02-24T21:01:29.590Z,8.38
2023-02-24T21:03:57.499Z,8.38
2023-02-24T21:06:26.238Z,9.07
2023-02-24T21:08:54.458Z,8.80
2023-02-24T21:11:23.809Z,10.13
2023-02-24T21:13:52.531Z,10.10
2023-02-24T21:16:21.946Z,10.15
2023-02-24T21:18:51.700Z,10.45
2023-02-24T21:21:20.423Z,10.00
2023-02-24T21:23:48.834Z,10.35
2023-02-24T21:26:17.972Z,10.43
2023-02-24T21:28:46.497Z,10.57
2023-02-24T21:31:18.138Z,10.13
2023-02-24T21:33:50.885Z,10.43
2023-02-24T21:36:21.567Z,9.90
2023-02-24T21:38:49.695Z,10.50
2023-02-24T21:41:20.752Z,10.10
2023-02-24T21:43:51.956Z,9.77
2023-02-24T21:46:19.813Z,10.52
2023-02-24T21:48:47.518Z,10.45
2023-02-24T21:51:15.353Z,10.70
2023-02-24T21:53:44.600Z,10.43
2023-02-24T21:56:19.486Z,11.07
2023-02-24T21:58:50.444Z,10.63
2023-02-24T22:01:25.173Z,10.88
2023-02-24T22:03:58.173Z,11.70
2023-02-24T22:06:31.027Z,11.70
2023-02-24T22:09:00.350Z,12.48
2023-02-24T22:11:30.120Z,11.45
2023-02-24T22:13:57.955Z,11.35
2023-02-24T22:16:26.497Z,11.82
2023-02-24T22:18:55.985Z,11.55
2023-02-24T22:21:26.081Z,12.13
2023-02-24T22:23:57.080Z,12.77
2023-02-24T22:26:26.924Z,11.75
2023-02-24T22:28:55.708Z,11.23
2023-02-24T22:31:27.199Z,11.38
2023-02-24T22:33:54.947Z,11.25
2023-02-24T22:36:31.310Z,10.88
2023-02-24T22:39:00.830Z,11.50
2023-02-24T22:41:33.732Z,11.10
2023-02-24T22:44:02.900Z,11.20
2023-02-24T22:46:34.018Z,10.80
2023-02-24T22:49:02.136Z,10.32
2023-02-24T22:51:30.402Z,9.57
2023-02-24T22:53:58.134Z,9.82
2023-02-24T22:56:27.578Z,10.80
2023-02-24T22:58:55.834Z,10.52
2023-02-24T23:01:29.481Z,9.25
2023-02-24T23:04:00.306Z,10.85
2023-02-24T23:06:28.451Z,11.05
2023-02-24T23:08:57.929Z,11.82
2023-02-24T23:11:29.644Z,11.05
2023-02-24T23:13:59.643Z,11.63
2023-02-24T23:16:32.125Z,11.38
2023-02-24T23:19:04.485Z,11.15
2023-02-24T23:21:38.327Z,11.30
2023-02-24T23:24:07.713Z,11.95
2023-02-24T23:26:38.763Z,11.00
2023-02-24T23:29:07.237Z,11.13
2023-02-24T23:31:35.925Z,11.55
2023-02-24T23:34:07.256Z,11.15
2023-02-24T23:36:39.676Z,11.85
2023-02-24T23:39:09.147Z,12.80
2023-02-24T23:41:37.963Z,12.25
2023-02-24T23:44:06.319Z,11.95
2023-02-24T23:46:35.724Z,11.95
2023-02-24T23:49:04.203Z,11.82
2023-02-24T23:51:47.003Z,11.77
2023-02-24T23:54:18.167Z,11.75
2023-02-24T23:56:46.801Z,10.50
2023-02-24T23:59:15.069Z,10.65
